ADDS TAF Data INFO
IDs: Format: Raw Decoded Include METARs

Data at: 1901 UTC 22 Sep 2017

KOSH 221853Z 18015KT 10SM CLR 31/22 A3000 RMK AO2 SLP143 T03110217

No TAF found for KOSH

KATW 221845Z 21014G19KT 10SM FEW050 SCT19 32/17 A2999

KATW 221729Z 2218/2318 20013G20KT P6SM SCT080
  FM230000 20007KT P6SM SKC
  FM231700 22010G18KT P6SM SCT250